createdAt,value
2018-08-30T00:01:39.184Z,3.43
2018-08-30T00:04:06.783Z,5.50
2018-08-30T00:06:34.367Z,2.73
2018-08-30T00:09:01.948Z,5.03
2018-08-30T00:11:29.545Z,3.73
2018-08-30T00:13:57.159Z,3.00
2018-08-30T00:16:24.787Z,6.37
2018-08-30T00:18:52.373Z,3.70
2018-08-30T00:21:19.936Z,3.70
2018-08-30T00:23:47.549Z,5.77
2018-08-30T00:26:15.144Z,7.20
2018-08-30T00:28:42.667Z,5.93
2018-08-30T00:31:10.346Z,2.77
2018-08-30T00:33:37.940Z,4.77
2018-08-30T00:36:05.780Z,3.50
2018-08-30T00:38:33.454Z,3.03
2018-08-30T00:41:01.028Z,4.17
2018-08-30T00:43:28.655Z,4.23
2018-08-30T00:45:56.239Z,6.10
2018-08-30T00:48:23.767Z,3.90
2018-08-30T00:50:51.497Z,8.70
2018-08-30T00:53:19.153Z,4.50
2018-08-30T00:55:46.716Z,4.23
2018-08-30T00:58:14.275Z,4.27
2018-08-30T01:00:41.869Z,5.13
2018-08-30T01:03:09.527Z,3.40
2018-08-30T01:05:37.139Z,3.60
2018-08-30T01:08:04.836Z,3.60
2018-08-30T01:10:32.372Z,5.07
2018-08-30T01:12:59.957Z,4.37
2018-08-30T01:15:27.636Z,4.17
2018-08-30T01:17:55.926Z,6.10
2018-08-30T01:20:23.529Z,4.50
2018-08-30T01:22:51.239Z,3.13
2018-08-30T01:25:19.113Z,6.13
2018-08-30T01:27:47.412Z,2.70
2018-08-30T01:30:15.003Z,2.53
2018-08-30T01:32:42.550Z,4.80
2018-08-30T01:35:10.124Z,3.87
2018-08-30T01:37:37.825Z,4.80
2018-08-30T01:40:05.516Z,5.50
2018-08-30T01:42:33.071Z,4.30
2018-08-30T01:45:00.712Z,4.20
2018-08-30T01:47:28.281Z,4.60
2018-08-30T01:49:55.976Z,8.40
2018-08-30T01:52:23.543Z,3.17
2018-08-30T01:54:51.179Z,4.33
2018-08-30T01:57:18.767Z,6.23
2018-08-30T01:59:46.328Z,3.63
2018-08-30T02:02:13.881Z,3.20
2018-08-30T02:04:41.483Z,3.97
2018-08-30T02:07:09.035Z,2.00
2018-08-30T02:09:36.607Z,4.20
2018-08-30T02:12:04.209Z,2.20
2018-08-30T02:14:31.815Z,3.30
2018-08-30T02:16:59.357Z,4.53
2018-08-30T02:19:26.983Z,2.20
2018-08-30T02:21:54.656Z,2.27
2018-08-30T02:24:22.227Z,3.17
2018-08-30T02:26:49.880Z,2.40
2018-08-30T02:29:17.483Z,3.10
2018-08-30T02:31:45.095Z,2.43
2018-08-30T02:34:12.779Z,9.47
2018-08-30T02:36:40.427Z,2.30
2018-08-30T02:39:08.693Z,2.43
2018-08-30T02:41:36.397Z,1.87
2018-08-30T02:44:04.296Z,1.93
2018-08-30T02:46:31.865Z,3.23
2018-08-30T02:48:59.417Z,2.80
2018-08-30T02:51:27.001Z,1.97
2018-08-30T02:53:54.696Z,2.17
2018-08-30T02:56:22.276Z,2.47
2018-08-30T02:58:50.194Z,2.50
2018-08-30T03:01:17.802Z,2.20
2018-08-30T03:03:45.401Z,2.23
2018-08-30T03:06:13.005Z,1.90
2018-08-30T03:08:40.631Z,2.43
2018-08-30T03:11:08.203Z,3.70
2018-08-30T03:13:35.787Z,3.30
2018-08-30T03:16:03.440Z,3.00
2018-08-30T03:18:31.047Z,2.97
2018-08-30T03:20:58.727Z,3.67
2018-08-30T03:23:26.328Z,3.73
2018-08-30T03:25:53.875Z,2.90
2018-08-30T03:28:21.448Z,6.57
2018-08-30T03:30:49.201Z,3.73
2018-08-30T03:33:16.825Z,6.70
2018-08-30T03:35:44.356Z,3.07
2018-08-30T03:38:11.995Z,4.50
2018-08-30T03:40:39.813Z,2.83
2018-08-30T03:43:07.442Z,5.27
2018-08-30T03:45:35.036Z,4.40
2018-08-30T03:48:02.687Z,4.20
2018-08-30T03:50:30.346Z,4.63
2018-08-30T03:52:58.012Z,7.77
2018-08-30T03:55:25.604Z,7.30
2018-08-30T03:57:53.170Z,3.70
2018-08-30T04:00:20.801Z,6.63
2018-08-30T04:02:48.383Z,5.73
2018-08-30T04:05:15.978Z,3.60
2018-08-30T04:07:43.613Z,5.90
2018-08-30T04:10:11.204Z,5.13
2018-08-30T04:12:38.771Z,6.77
2018-08-30T04:15:06.432Z,8.50
2018-08-30T04:17:34.012Z,8.97
2018-08-30T04:20:01.610Z,11.00
2018-08-30T04:22:29.171Z,7.20
2018-08-30T04:24:56.699Z,6.27
2018-08-30T04:27:24.298Z,7.00
2018-08-30T04:29:51.822Z,11.13
2018-08-30T04:32:19.370Z,6.10
2018-08-30T04:34:46.919Z,7.27
2018-08-30T04:37:14.551Z,11.47
2018-08-30T04:39:42.083Z,7.87
2018-08-30T04:42:09.688Z,6.10
2018-08-30T04:44:37.196Z,7.73
2018-08-30T04:47:04.844Z,7.60
2018-08-30T04:49:32.415Z,8.10
2018-08-30T04:51:59.985Z,8.10
2018-08-30T04:54:27.556Z,10.53
2018-08-30T04:56:55.088Z,9.17
2018-08-30T04:59:22.656Z,7.70
2018-08-30T05:01:50.313Z,10.13
2018-08-30T05:04:17.836Z,8.77
2018-08-30T05:06:45.373Z,6.27
2018-08-30T05:09:12.941Z,8.67
2018-08-30T05:11:41.068Z,7.93
2018-08-30T05:14:09.032Z,5.60
2018-08-30T05:16:37.051Z,6.10
2018-08-30T05:19:04.989Z,6.40
2018-08-30T05:21:33.007Z,4.87
2018-08-30T05:24:00.588Z,10.23
2018-08-30T05:26:28.168Z,7.63
2018-08-30T05:28:55.807Z,8.70
2018-08-30T05:31:23.460Z,6.23
2018-08-30T05:33:51.141Z,9.23
2018-08-30T05:36:18.720Z,6.50
2018-08-30T05:38:46.325Z,10.80
2018-08-30T05:41:13.882Z,8.13
2018-08-30T05:43:41.395Z,6.73
2018-08-30T05:46:09.040Z,6.07
2018-08-30T05:48:36.640Z,8.63
2018-08-30T05:51:04.253Z,5.83
2018-08-30T05:53:31.868Z,8.90
2018-08-30T05:55:59.510Z,10.33
2018-08-30T05:58:27.121Z,13.33
2018-08-30T06:00:54.749Z,9.47
2018-08-30T06:03:22.302Z,11.93
2018-08-30T06:05:49.957Z,9.87
2018-08-30T06:08:17.577Z,16.57
2018-08-30T06:10:45.177Z,12.80
2018-08-30T06:13:12.853Z,13.17
2018-08-30T06:15:40.346Z,14.37
2018-08-30T06:18:07.901Z,14.60
2018-08-30T06:20:35.484Z,12.10
2018-08-30T06:23:03.239Z,16.00
2018-08-30T06:25:30.808Z,16.83
2018-08-30T06:30:32.620Z,22.37
2018-08-30T06:33:00.236Z,21.17
2018-08-30T06:35:27.748Z,17.17
2018-08-30T06:37:55.406Z,18.83
2018-08-30T06:40:22.962Z,17.47
2018-08-30T06:42:50.544Z,19.53
2018-08-30T06:45:18.189Z,23.67
2018-08-30T06:47:45.737Z,18.53
2018-08-30T06:50:13.317Z,22.73
2018-08-30T06:52:40.879Z,23.03
2018-08-30T06:55:08.709Z,17.00
2018-08-30T06:57:36.305Z,19.13
2018-08-30T07:00:04.331Z,21.33
2018-08-30T07:02:31.865Z,18.50
2018-08-30T07:04:59.484Z,17.80
2018-08-30T07:07:27.060Z,20.50
2018-08-30T07:09:54.643Z,23.50
2018-08-30T07:12:22.267Z,18.40
2018-08-30T07:14:49.848Z,23.10
2018-08-30T07:17:17.778Z,18.43
2018-08-30T07:19:45.320Z,18.73
2018-08-30T07:22:12.888Z,17.90
2018-08-30T07:24:40.484Z,13.53
2018-08-30T07:27:08.069Z,16.60
2018-08-30T07:29:35.679Z,14.83
2018-08-30T07:32:03.320Z,15.07
2018-08-30T07:34:30.961Z,9.93
2018-08-30T07:36:58.438Z,15.43
2018-08-30T07:39:26.013Z,16.90
2018-08-30T07:41:53.558Z,16.80
2018-08-30T07:44:21.227Z,14.60
2018-08-30T07:46:48.721Z,12.97
2018-08-30T07:49:17.069Z,17.43
2018-08-30T07:51:44.680Z,12.23
2018-08-30T07:54:12.247Z,14.73
2018-08-30T07:56:40.084Z,11.17
2018-08-30T07:59:07.620Z,9.93
2018-08-30T08:01:35.159Z,12.00
2018-08-30T08:04:02.701Z,15.53
2018-08-30T08:06:30.552Z,10.87
2018-08-30T08:08:58.093Z,12.37
2018-08-30T08:11:25.701Z,15.33
2018-08-30T08:13:53.278Z,11.10
2018-08-30T08:16:20.831Z,7.87
2018-08-30T08:18:48.392Z,11.60
2018-08-30T08:21:15.919Z,11.53
2018-08-30T08:23:43.474Z,13.23
2018-08-30T08:26:11.034Z,11.27
2018-08-30T08:28:38.651Z,7.43
2018-08-30T08:31:06.269Z,9.27
2018-08-30T08:33:33.940Z,12.17
2018-08-30T08:36:01.551Z,10.67
2018-08-30T08:38:29.187Z,12.33
2018-08-30T08:40:56.972Z,9.90
2018-08-30T08:43:24.580Z,12.40
2018-08-30T08:45:52.142Z,9.23
2018-08-30T08:48:19.647Z,11.73
2018-08-30T08:50:47.355Z,8.50
2018-08-30T08:53:14.919Z,10.73
2018-08-30T08:55:42.708Z,23.63
2018-08-30T08:58:10.312Z,7.23
2018-08-30T09:00:37.936Z,9.13
2018-08-30T09:03:05.805Z,7.33
2018-08-30T09:05:33.405Z,10.03
2018-08-30T09:08:01.101Z,8.97
2018-08-30T09:10:28.723Z,8.73
2018-08-30T09:12:56.420Z,5.20
2018-08-30T09:15:24.077Z,8.90
2018-08-30T09:17:51.672Z,4.80
2018-08-30T09:20:19.250Z,7.20
2018-08-30T09:22:46.996Z,4.93
2018-08-30T09:25:14.607Z,6.47
2018-08-30T09:27:42.167Z,5.50
2018-08-30T09:30:09.803Z,8.53
2018-08-30T09:32:37.409Z,5.40
2018-08-30T09:35:05.279Z,11.57
2018-08-30T09:37:32.930Z,7.13
2018-08-30T09:40:00.496Z,14.40
2018-08-30T09:42:28.077Z,7.13
2018-08-30T09:44:55.716Z,12.60
2018-08-30T09:47:23.286Z,4.87
2018-08-30T09:49:50.957Z,7.03
2018-08-30T09:52:18.424Z,8.37
2018-08-30T09:54:46.020Z,8.13
2018-08-30T09:57:13.727Z,10.30
2018-08-30T09:59:41.113Z,5.67
2018-08-30T10:02:14.358Z,4.33
2018-08-30T10:04:42.011Z,6.07
2018-08-30T10:07:09.525Z,6.77
2018-08-30T10:09:37.080Z,6.83
2018-08-30T10:12:04.829Z,7.70
2018-08-30T10:14:32.424Z,10.53
2018-08-30T10:17:00.037Z,8.60
2018-08-30T10:19:27.626Z,12.47
2018-08-30T10:21:55.288Z,9.90
2018-08-30T10:24:22.897Z,7.40
2018-08-30T10:26:50.488Z,6.70
2018-08-30T10:29:18.059Z,9.90
2018-08-30T10:31:46.262Z,9.37
2018-08-30T10:34:13.903Z,7.20
2018-08-30T10:36:41.502Z,8.70
2018-08-30T10:39:09.119Z,8.17
2018-08-30T10:41:36.792Z,8.80
2018-08-30T10:44:04.505Z,12.70
2018-08-30T10:46:32.167Z,9.17
2018-08-30T10:48:59.932Z,12.17
2018-08-30T10:51:27.570Z,9.33
2018-08-30T10:53:55.113Z,12.93
2018-08-30T10:56:22.827Z,10.07
2018-08-30T10:58:50.417Z,9.53
2018-08-30T11:01:17.974Z,13.80
2018-08-30T11:03:45.739Z,9.90
2018-08-30T11:06:13.440Z,13.67
2018-08-30T11:08:41.007Z,9.70
2018-08-30T11:11:08.605Z,12.00
2018-08-30T11:13:36.266Z,8.70
2018-08-30T11:16:03.764Z,13.57
2018-08-30T11:18:31.425Z,7.93
2018-08-30T11:20:59.026Z,12.33
2018-08-30T11:23:26.714Z,11.50
2018-08-30T11:25:54.252Z,11.00
2018-08-30T11:28:21.875Z,12.47
2018-08-30T11:30:49.473Z,11.23
2018-08-30T11:33:17.055Z,9.87
2018-08-30T11:35:44.587Z,13.47
2018-08-30T11:38:12.145Z,12.20
2018-08-30T11:40:39.713Z,12.00
2018-08-30T11:43:07.395Z,8.50
2018-08-30T11:45:35.159Z,14.00
2018-08-30T11:48:02.716Z,8.77
2018-08-30T11:50:30.333Z,11.77
2018-08-30T11:52:57.893Z,9.30
2018-08-30T11:55:25.480Z,9.63
2018-08-30T11:57:53.077Z,10.40
2018-08-30T12:00:20.667Z,9.67
2018-08-30T12:02:48.327Z,10.97
2018-08-30T12:05:16.046Z,11.43
2018-08-30T12:07:44.092Z,11.10
2018-08-30T12:10:11.719Z,16.43
2018-08-30T12:12:39.309Z,10.07
2018-08-30T12:15:07.232Z,10.60
2018-08-30T12:17:34.833Z,9.20
2018-08-30T12:20:02.795Z,10.07
2018-08-30T12:22:30.352Z,9.10
2018-08-30T12:24:57.892Z,11.90
2018-08-30T12:27:25.546Z,9.90
2018-08-30T12:29:53.172Z,10.97
2018-08-30T12:32:20.778Z,9.30
2018-08-30T12:34:48.351Z,12.43
2018-08-30T12:37:15.978Z,11.80
2018-08-30T12:39:43.591Z,12.60
2018-08-30T12:42:11.090Z,15.33
2018-08-30T12:44:38.661Z,10.97
2018-08-30T12:47:06.361Z,13.90
2018-08-30T12:49:34.048Z,12.47
2018-08-30T12:52:01.704Z,11.67
2018-08-30T12:54:29.246Z,9.90
2018-08-30T12:56:56.803Z,10.43
2018-08-30T12:59:30.007Z,15.23
2018-08-30T13:01:57.568Z,14.40
2018-08-30T13:04:25.290Z,12.77
2018-08-30T13:06:54.600Z,8.80
2018-08-30T13:09:22.679Z,11.00
2018-08-30T13:11:50.213Z,9.77
2018-08-30T13:14:17.896Z,9.97
2018-08-30T13:16:45.201Z,14.83
2018-08-30T13:19:13.336Z,9.20
2018-08-30T13:21:41.044Z,10.77
2018-08-30T13:24:08.500Z,9.17
2018-08-30T13:26:36.048Z,11.43
2018-08-30T13:29:03.725Z,8.60
2018-08-30T13:31:31.602Z,8.40
2018-08-30T13:34:02.419Z,9.83
2018-08-30T13:36:29.825Z,9.03
2018-08-30T13:38:57.660Z,10.87
2018-08-30T13:41:25.495Z,10.17
2018-08-30T13:43:53.229Z,9.50
2018-08-30T13:46:20.447Z,8.83
2018-08-30T13:48:48.105Z,11.60
2018-08-30T13:51:16.033Z,7.63
2018-08-30T13:53:43.588Z,8.47
2018-08-30T13:56:11.135Z,12.07
2018-08-30T13:58:39.094Z,9.73
2018-08-30T14:01:06.875Z,8.07
2018-08-30T14:03:34.330Z,12.10
2018-08-30T14:06:01.946Z,9.30
2018-08-30T14:08:29.580Z,10.07
2018-08-30T14:10:57.927Z,11.90
2018-08-30T14:13:25.952Z,13.37
2018-08-30T14:15:53.196Z,11.83
2018-08-30T14:18:20.739Z,9.60
2018-08-30T14:20:48.352Z,12.37
2018-08-30T14:23:15.978Z,13.90
2018-08-30T14:25:43.633Z,9.60
2018-08-30T14:28:11.148Z,10.40
2018-08-30T14:30:38.734Z,15.33
2018-08-30T14:33:06.454Z,18.30
2018-08-30T14:35:33.893Z,18.00
2018-08-30T14:38:01.409Z,13.40
2018-08-30T14:40:29.071Z,12.00
2018-08-30T14:42:56.532Z,13.40
2018-08-30T14:45:24.094Z,13.87
2018-08-30T14:47:51.730Z,14.57
2018-08-30T14:50:19.261Z,11.57
2018-08-30T14:52:46.917Z,12.30
2018-08-30T14:55:14.558Z,11.93
2018-08-30T14:57:42.161Z,16.30
2018-08-30T15:00:09.783Z,11.90
2018-08-30T15:02:37.307Z,11.13
2018-08-30T15:05:05.467Z,11.80
2018-08-30T15:07:32.954Z,15.30
2018-08-30T15:10:00.473Z,10.40
2018-08-30T15:12:28.104Z,13.20
2018-08-30T15:14:55.611Z,9.53
2018-08-30T15:17:23.194Z,14.07
2018-08-30T15:19:50.972Z,12.53
2018-08-30T15:22:18.525Z,12.53
2018-08-30T15:24:46.194Z,11.57
2018-08-30T15:27:13.934Z,12.27
2018-08-30T15:29:41.316Z,10.90
2018-08-30T15:32:08.864Z,12.90
2018-08-30T15:34:36.446Z,14.27
2018-08-30T15:37:04.292Z,14.60
2018-08-30T15:39:31.906Z,13.43
2018-08-30T15:41:59.531Z,13.63
2018-08-30T15:44:27.120Z,12.40
2018-08-30T15:46:54.709Z,10.60
2018-08-30T15:49:22.287Z,11.50
2018-08-30T15:51:49.896Z,14.83
2018-08-30T15:54:17.456Z,14.90
2018-08-30T15:56:45.077Z,13.90
2018-08-30T15:59:12.779Z,13.60
2018-08-30T16:01:40.295Z,14.50
2018-08-30T16:04:07.845Z,14.97
2018-08-30T16:06:35.479Z,14.67
2018-08-30T16:09:04.513Z,12.70
2018-08-30T16:11:32.102Z,12.37
2018-08-30T16:13:59.718Z,13.33
2018-08-30T16:16:27.306Z,11.27
2018-08-30T16:18:55.098Z,14.03
2018-08-30T16:21:22.605Z,15.03
2018-08-30T16:23:50.208Z,13.83
2018-08-30T16:26:17.988Z,13.60
2018-08-30T16:28:45.572Z,17.73
2018-08-30T16:31:13.256Z,14.33
2018-08-30T16:33:40.760Z,12.70
2018-08-30T16:36:08.377Z,13.60
2018-08-30T16:38:36.028Z,17.83
2018-08-30T16:41:03.719Z,14.50
2018-08-30T16:43:31.237Z,19.63
2018-08-30T16:45:58.848Z,13.73
2018-08-30T16:48:26.518Z,13.80
2018-08-30T16:50:54.124Z,16.57
2018-08-30T16:53:21.818Z,15.83
2018-08-30T16:55:49.338Z,17.07
2018-08-30T16:58:17.006Z,12.47
2018-08-30T17:00:44.620Z,14.60
2018-08-30T17:03:12.254Z,16.17
2018-08-30T17:05:39.847Z,16.90
2018-08-30T17:08:07.400Z,19.27
2018-08-30T17:10:35.048Z,16.70
2018-08-30T17:13:02.652Z,16.03
2018-08-30T17:15:30.256Z,19.17
2018-08-30T17:17:57.830Z,18.70
2018-08-30T17:20:32.806Z,15.80
2018-08-30T17:23:00.245Z,21.07
2018-08-30T17:25:27.991Z,17.60
2018-08-30T17:27:55.468Z,12.73
2018-08-30T17:30:23.090Z,15.83
2018-08-30T17:32:50.689Z,10.17
2018-08-30T17:35:18.287Z,15.27
2018-08-30T17:37:45.921Z,13.03
2018-08-30T17:40:13.612Z,13.80
2018-08-30T17:42:41.267Z,12.00
2018-08-30T17:45:09.064Z,18.80
2018-08-30T17:47:36.925Z,13.97
2018-08-30T17:50:05.238Z,13.63
2018-08-30T17:52:32.848Z,15.97
2018-08-30T17:55:00.403Z,13.10
2018-08-30T17:57:28.577Z,13.83
2018-08-30T17:59:56.176Z,17.10
2018-08-30T18:02:23.929Z,13.57
2018-08-30T18:04:51.553Z,19.80
2018-08-30T18:07:19.326Z,39.37
2018-08-30T18:09:47.102Z,36.53
2018-08-30T18:12:14.843Z,42.43
2018-08-30T18:14:42.531Z,22.93
2018-08-30T18:17:10.149Z,18.20
2018-08-30T18:19:37.874Z,20.73
2018-08-30T18:22:05.971Z,17.60
2018-08-30T18:24:33.609Z,21.60
2018-08-30T18:27:01.441Z,17.10
2018-08-30T18:29:29.058Z,17.57
2018-08-30T18:31:56.735Z,16.17
2018-08-30T18:34:24.289Z,11.93
2018-08-30T18:36:51.951Z,12.70
2018-08-30T18:39:19.658Z,14.40
2018-08-30T18:41:47.453Z,13.40
2018-08-30T18:44:15.294Z,14.10
2018-08-30T18:46:43.177Z,15.23
2018-08-30T18:49:10.957Z,12.80
2018-08-30T18:51:38.824Z,19.50
2018-08-30T18:54:06.492Z,17.97
2018-08-30T18:56:34.054Z,14.30
2018-08-30T18:59:02.216Z,15.17
2018-08-30T19:01:29.908Z,12.43
2018-08-30T19:03:57.683Z,19.33
2018-08-30T19:06:26.099Z,14.20
2018-08-30T19:08:54.091Z,16.30
2018-08-30T19:11:21.924Z,18.57
2018-08-30T19:13:49.680Z,17.63
2018-08-30T19:16:23.140Z,15.37
2018-08-30T19:18:56.922Z,16.73
2018-08-30T19:21:24.925Z,15.63
2018-08-30T19:23:52.562Z,16.50
2018-08-30T19:26:20.732Z,17.20
2018-08-30T19:28:48.381Z,17.13
2018-08-30T19:31:15.922Z,15.77
2018-08-30T19:33:43.826Z,18.40
2018-08-30T19:36:17.133Z,18.10
2018-08-30T19:38:45.388Z,17.73
2018-08-30T19:41:18.692Z,16.73
2018-08-30T19:43:47.470Z,19.73
2018-08-30T19:46:15.731Z,13.53
2018-08-30T19:48:43.472Z,15.43
2018-08-30T19:51:11.360Z,15.97
2018-08-30T19:53:39.494Z,22.27
2018-08-30T19:56:07.298Z,17.40
2018-08-30T19:58:35.195Z,21.23
2018-08-30T20:01:02.803Z,13.27
2018-08-30T20:03:30.761Z,17.67
2018-08-30T20:05:58.336Z,17.30
2018-08-30T20:08:26.328Z,16.47
2018-08-30T20:10:53.907Z,19.20
2018-08-30T20:13:21.553Z,21.00
2018-08-30T20:15:49.300Z,19.20
2018-08-30T20:18:16.895Z,18.73
2018-08-30T20:20:44.635Z,19.07
2018-08-30T20:23:12.506Z,16.23
2018-08-30T20:25:40.190Z,14.00
2018-08-30T20:28:07.910Z,18.83
2018-08-30T20:30:35.430Z,20.03
2018-08-30T20:33:03.108Z,19.13
2018-08-30T20:35:30.693Z,20.90
2018-08-30T20:37:58.265Z,17.20
2018-08-30T20:40:26.046Z,20.40
2018-08-30T20:42:53.621Z,18.93
2018-08-30T20:45:21.245Z,22.23
2018-08-30T20:47:48.807Z,19.83
2018-08-30T20:50:16.469Z,19.70
2018-08-30T20:52:44.037Z,20.13
2018-08-30T20:55:11.585Z,18.00
2018-08-30T20:57:39.141Z,22.67
2018-08-30T21:00:06.927Z,17.33
2018-08-30T21:02:34.584Z,24.00
2018-08-30T21:05:02.121Z,16.77
2018-08-30T21:07:29.689Z,21.60
2018-08-30T21:09:57.231Z,20.80
2018-08-30T21:12:24.904Z,24.43
2018-08-30T21:14:52.438Z,18.13
2018-08-30T21:17:20.012Z,21.30
2018-08-30T21:19:47.577Z,18.83
2018-08-30T21:22:15.229Z,17.23
2018-08-30T21:24:42.799Z,22.17
2018-08-30T21:27:10.341Z,16.10
2018-08-30T21:29:37.905Z,20.83
2018-08-30T21:32:05.556Z,19.63
2018-08-30T21:34:33.145Z,17.03
2018-08-30T21:37:00.691Z,17.83
2018-08-30T21:39:28.644Z,18.83
2018-08-30T21:41:56.216Z,21.80
2018-08-30T21:44:23.740Z,23.17
2018-08-30T21:46:51.376Z,20.93
2018-08-30T21:49:18.988Z,18.93
2018-08-30T21:51:46.634Z,26.00
2018-08-30T21:54:14.222Z,18.10
2018-08-30T21:56:41.820Z,20.83
2018-08-30T21:59:09.376Z,18.80
2018-08-30T22:01:36.967Z,19.60
2018-08-30T22:04:04.507Z,30.30
2018-08-30T22:06:32.048Z,21.23
2018-08-30T22:08:59.589Z,27.53
2018-08-30T22:11:27.172Z,18.93
2018-08-30T22:13:54.730Z,19.40
2018-08-30T22:16:22.277Z,23.00
2018-08-30T22:18:49.917Z,20.17
2018-08-30T22:21:17.528Z,20.33
2018-08-30T22:23:45.110Z,23.77
2018-08-30T22:26:13.239Z,22.10
2018-08-30T22:28:40.792Z,22.80
2018-08-30T22:31:08.332Z,19.17
2018-08-30T22:33:35.885Z,18.37
2018-08-30T22:36:03.493Z,23.63
2018-08-30T22:38:31.101Z,20.13
2018-08-30T22:40:58.726Z,19.27
2018-08-30T22:43:26.325Z,22.27
2018-08-30T22:45:53.924Z,20.63
2018-08-30T22:48:21.501Z,22.10
2018-08-30T22:50:49.081Z,20.47
2018-08-30T22:53:16.689Z,21.10
2018-08-30T22:55:44.280Z,19.53
2018-08-30T22:58:11.940Z,23.07
2018-08-30T23:00:39.674Z,34.83
2018-08-30T23:03:07.243Z,22.93
2018-08-30T23:05:34.861Z,20.73
2018-08-30T23:08:02.412Z,23.50
2018-08-30T23:10:29.947Z,34.30
2018-08-30T23:12:57.616Z,22.70
2018-08-30T23:15:25.192Z,25.00
2018-08-30T23:17:52.785Z,24.80
2018-08-30T23:20:20.320Z,28.17
2018-08-30T23:22:47.857Z,28.97
2018-08-30T23:25:15.376Z,21.07
2018-08-30T23:27:42.913Z,30.90
2018-08-30T23:30:10.483Z,28.07
2018-08-30T23:32:38.025Z,32.03
2018-08-30T23:35:05.646Z,29.20
2018-08-30T23:37:33.211Z,27.37
2018-08-30T23:40:00.770Z,27.77
2018-08-30T23:42:28.316Z,32.03
2018-08-30T23:44:55.910Z,26.97
2018-08-30T23:47:23.492Z,31.70
2018-08-30T23:49:51.052Z,36.13
2018-08-30T23:52:18.566Z,30.23
2018-08-30T23:54:46.116Z,24.03
2018-08-30T23:57:13.737Z,30.47
2018-08-30T23:59:52.703Z,30.30
